Time;durP1;ratioP1;P1;durP2;ratioP2;P2;SDS_P1;SDS_P2;PMS_P1;PMS_P2;Temp;Humidity;BMP_temperature;BMP_pressure;BME280_temperature;BME280_humidity;BME280_pressure;Samples;Min_cycle;Max_cycle;Signal;HPM_P1;HPM_P2
2022/09/16 00:01:24;;;;;;;4.77;4.27;;;;;;;;;;5058999;28;20181;-82
2022/09/16 00:03:55;;;;;;;5.50;4.33;;;13.30;99.90;;;;;;5057491;28;20247;-83
2022/09/16 00:06:26;;;;;;;5.77;4.50;;;13.30;99.90;;;;;;5058852;28;20164;-84
2022/09/16 00:08:59;;;;;;;5.67;4.67;;;13.30;99.90;;;;;;5056926;28;20166;-84
2022/09/16 00:11:26;;;;;;;5.00;4.40;;;13.20;99.90;;;;;;5059345;28;20196;-84
2022/09/16 00:13:51;;;;;;;7.93;4.30;;;13.10;99.90;;;;;;5056749;28;20197;-84
2022/09/16 00:16:21;;;;;;;8.10;3.87;;;13.20;99.90;;;;;;5057129;28;20178;-83
2022/09/16 00:18:47;;;;;;;6.13;4.60;;;13.20;99.90;;;;;;5058065;28;20197;-84
2022/09/16 00:21:13;;;;;;;5.77;4.20;;;;;;;;;;5058883;28;20177;-84
2022/09/16 00:23:39;;;;;;;4.20;3.80;;;;;;;;;;5057254;28;20197;-85
2022/09/16 00:26:05;;;;;;;4.90;3.80;;;13.00;99.90;;;;;;5057377;28;20292;-85
2022/09/16 00:28:31;;;;;;;4.80;4.30;;;13.00;99.90;;;;;;5057126;28;20218;-84
2022/09/16 00:31:00;;;;;;;7.07;4.53;;;13.10;99.90;;;;;;5059492;28;20173;-82
2022/09/16 00:33:27;;;;;;;5.63;5.03;;;12.90;99.90;;;;;;5058706;28;20193;-84
2022/09/16 00:36:03;;;;;;;5.47;4.87;;;13.10;99.90;;;;;;5058206;28;20634;-84
2022/09/16 00:38:28;;;;;;;6.73;4.70;;;13.10;99.90;;;;;;5058978;28;20578;-84
2022/09/16 00:40:54;;;;;;;7.63;5.10;;;13.10;99.90;;;;;;5057768;28;20212;-83
2022/09/16 00:43:19;;;;;;;7.87;5.30;;;13.00;99.90;;;;;;5058922;28;20197;-83
2022/09/16 00:45:50;;;;;;;7.63;5.63;;;13.00;99.90;;;;;;5060005;28;20204;-84
2022/09/16 00:48:20;;;;;;;5.30;4.50;;;13.00;99.90;;;;;;5058634;28;20645;-84
2022/09/16 00:50:55;;;;;;;5.03;4.53;;;13.00;99.90;;;;;;5059492;28;20170;-84
2022/09/16 00:53:59;;;;;;;7.40;5.20;;;12.80;99.90;;;;;;5058463;28;20212;-82
2022/09/16 00:56:26;;;;;;;6.83;5.00;;;13.00;99.90;;;;;;5046974;28;20185;-84
2022/09/16 00:59:04;;;;;;;6.03;5.17;;;13.00;99.90;;;;;;5057846;28;20184;-84
2022/09/16 01:01:31;;;;;;;6.90;5.03;;;;;;;;;;5059699;28;20185;-83
2022/09/16 01:04:02;;;;;;;8.00;5.93;;;13.00;99.90;;;;;;5058301;28;20158;-85
2022/09/16 06:17:13;;;;;;;9.20;6.67;;;;;;;;;;5135257;27;20281;-85
2022/09/16 06:19:39;;;;;;;7.70;6.30;;;13.10;99.90;;;;;;5137409;28;20175;-85
2022/09/16 06:22:04;;;;;;;7.83;6.47;;;13.20;99.90;;;;;;5119136;28;20200;-84
2022/09/16 06:24:30;;;;;;;6.97;6.17;;;13.20;99.90;;;;;;5137207;27;20576;-85
2022/09/16 06:26:55;;;;;;;7.20;6.17;;;13.20;99.90;;;;;;5137440;28;20261;-83
2022/09/16 06:29:21;;;;;;;9.37;5.60;;;13.10;99.90;;;;;;5136573;28;20245;-85
2022/09/16 06:31:47;;;;;;;9.63;6.07;;;13.20;99.90;;;;;;5135476;28;20171;-86
2022/09/16 06:34:19;;;;;;;9.17;5.10;;;13.20;99.90;;;;;;5136226;28;20265;-84
2022/09/16 06:36:45;;;;;;;7.07;5.20;;;13.30;99.90;;;;;;5134642;28;20226;-85
2022/09/16 06:39:13;;;;;;;9.23;4.83;;;13.30;99.90;;;;;;5135230;28;20171;-84
2022/09/16 06:41:39;;;;;;;11.50;5.83;;;13.40;99.90;;;;;;5136102;28;20171;-84
2022/09/16 06:44:05;;;;;;;6.13;5.27;;;13.40;99.90;;;;;;5135445;28;20608;-84
2022/09/16 06:46:30;;;;;;;5.67;4.90;;;13.40;99.90;;;;;;5134527;28;20239;-85
2022/09/16 06:48:57;;;;;;;9.67;4.73;;;13.40;99.90;;;;;;5135823;28;20615;-85
2022/09/16 07:01:28;;;;;;;6.10;3.93;;;13.70;99.90;;;;;;5138379;27;20277;-86
2022/09/16 07:03:56;;;;;;;4.90;4.20;;;13.70;99.90;;;;;;5135912;28;20197;-85
2022/09/16 07:06:23;;;;;;;5.97;4.60;;;13.70;99.90;;;;;;5135531;28;20196;-86
2022/09/16 07:08:49;;;;;;;7.00;4.57;;;13.70;99.90;;;;;;5134919;28;20170;-84
2022/09/16 07:11:19;;;;;;;5.83;4.67;;;13.70;99.90;;;;;;5136508;27;20227;-86
2022/09/16 07:13:47;;;;;;;9.63;5.13;;;13.80;99.90;;;;;;5135028;28;20572;-85
2022/09/16 07:16:21;;;;;;;5.47;4.57;;;13.80;99.90;;;;;;5136007;27;20167;-86
2022/09/16 07:18:55;;;;;;;9.13;4.30;;;13.80;99.90;;;;;;5134732;28;20185;-84
2022/09/16 07:21:24;;;;;;;5.83;4.43;;;13.80;99.90;;;;;;5135105;28;20248;-84
2022/09/16 07:23:53;;;;;;;6.93;4.40;;;13.80;99.90;;;;;;5134774;28;20195;-85
2022/09/16 07:26:21;;;;;;;7.23;4.67;;;13.90;99.90;;;;;;5134121;28;20530;-84
2022/09/16 07:28:48;;;;;;;6.33;5.30;;;13.90;99.90;;;;;;5135999;27;20171;-85
2022/09/16 07:31:17;;;;;;;6.60;5.13;;;14.00;99.90;;;;;;5134504;28;20181;-85
2022/09/16 07:33:49;;;;;;;8.10;4.07;;;14.00;99.90;;;;;;5133956;28;20199;-85
2022/09/16 07:36:24;;;;;;;8.17;4.83;;;14.00;99.90;;;;;;5134624;28;20160;-86
2022/09/16 07:38:50;;;;;;;5.60;4.97;;;14.10;99.90;;;;;;5135771;27;20162;-85
2022/09/16 07:53:20;;;;;;;6.17;5.00;;;14.10;99.90;;;;;;5137309;27;20291;-84
2022/09/16 07:55:45;;;;;;;6.50;4.63;;;14.10;99.90;;;;;;5136331;27;20712;-84
2022/09/16 07:58:11;;;;;;;9.03;5.13;;;14.10;99.90;;;;;;5134286;28;20545;-85
2022/09/16 08:00:37;;;;;;;5.53;4.63;;;14.10;99.90;;;;;;5136812;27;20655;-85
2022/09/16 08:18:13;;;;;;;10.13;6.20;;;14.00;99.90;;;;;;5137548;27;20271;-85
2022/09/16 08:20:38;;;;;;;7.27;6.17;;;14.00;99.90;;;;;;5137253;28;20262;-85
2022/09/16 08:23:04;;;;;;;10.10;5.83;;;14.10;99.90;;;;;;5135803;28;20282;-83
2022/09/16 08:35:29;;;;;;;8.03;5.97;;;13.90;99.90;;;;;;5118099;27;20669;-83
2022/09/16 08:37:56;;;;;;;12.53;10.80;;;14.00;99.90;;;;;;5117174;28;20202;-84
2022/09/16 08:40:23;;;;;;;7.77;6.73;;;14.00;99.90;;;;;;5117885;28;20167;-84
2022/09/16 08:43:23;;;;;;;9.97;7.13;;;14.10;99.90;;;;;;5117760;28;20199;-83
2022/09/16 08:46:15;;;;;;;7.60;6.03;;;14.10;99.90;;;;;;5115169;28;20205;-85
2022/09/16 08:48:44;;;;;;;7.23;5.77;;;14.10;99.90;;;;;;5111658;28;20184;-84
2022/09/16 08:51:15;;;;;;;7.07;6.00;;;14.00;99.90;;;;;;5115336;28;20178;-85
2022/09/16 08:53:48;;;;;;;8.60;6.23;;;14.00;99.90;;;;;;5116165;28;20199;-84
2022/09/16 09:08:18;;;;;;;5.20;4.70;;;13.60;99.90;;;;;;5136370;27;20740;-83
2022/09/16 09:10:51;;;;;;;8.77;5.20;;;13.60;99.90;;;;;;5117797;28;20609;-83
2022/09/16 09:13:28;;;;;;;7.33;5.53;;;13.70;99.90;;;;;;5128598;28;20207;-84
2022/09/16 09:16:17;;;;;;;7.23;5.40;;;13.70;99.90;;;;;;5134608;28;20182;-84
2022/09/16 09:18:50;;;;;;;7.00;5.23;;;13.80;99.90;;;;;;5135381;27;20175;-84
2022/09/16 09:21:21;;;;;;;10.13;6.40;;;13.80;99.90;;;;;;5134367;28;20166;-84
2022/09/16 09:24:15;;;;;;;11.70;8.60;;;13.90;99.90;;;;;;5134154;28;20672;-83
2022/09/16 09:26:51;;;;;;;8.07;6.20;;;13.80;99.90;;;;;;5134458;28;20187;-84
2022/09/16 09:29:32;;;;;;;6.40;5.60;;;13.90;99.90;;;;;;5135379;27;20151;-84
2022/09/16 09:32:16;;;;;;;6.80;6.10;;;13.80;99.90;;;;;;5134642;28;20187;-84
2022/09/16 09:35:03;;;;;;;10.53;6.40;;;13.80;99.90;;;;;;5134200;28;20155;-84
2022/09/16 09:37:54;;;;;;;10.27;8.80;;;13.90;99.90;;;;;;5134106;28;20194;-84
2022/09/16 09:40:45;;;;;;;7.63;6.10;;;13.80;99.90;;;;;;5135075;27;20178;-83
2022/09/16 09:43:18;;;;;;;11.23;8.43;;;13.80;99.90;;;;;;5134298;28;20211;-83
2022/09/16 09:46:16;;;;;;;11.10;7.53;;;13.80;99.90;;;;;;5135238;27;20175;-84
2022/09/16 09:48:50;;;;;;;9.97;8.53;;;13.70;99.90;;;;;;5133434;28;20198;-84
2022/09/16 09:51:26;;;;;;;14.83;13.37;;;13.90;99.90;;;;;;5134522;27;20150;-83
2022/09/16 09:54:02;;;;;;;10.83;9.70;;;13.90;99.90;;;;;;5133841;28;20194;-85
2022/09/16 09:56:42;;;;;;;10.13;8.77;;;14.20;99.90;;;;;;5134212;27;20169;-84
2022/09/16 09:59:28;;;;;;;18.37;13.23;;;15.20;99.90;;;;;;5133378;28;20220;-84
2022/09/16 10:01:56;;;;;;;18.67;14.20;;;16.40;99.90;;;;;;5134844;28;20197;-86
2022/09/16 10:04:22;;;;;;;12.17;8.37;;;16.80;99.90;;;;;;5136530;27;20173;-85
2022/09/16 10:06:50;;;;;;;10.97;8.97;;;16.90;99.90;;;;;;5136712;27;20636;-88
2022/09/16 10:09:17;;;;;;;40.47;27.90;;;16.90;99.90;;;;;;5136060;28;20176;-86
2022/09/16 10:11:54;;;;;;;12.87;10.43;;;16.90;99.90;;;;;;5135823;28;20178;-86
2022/09/16 10:14:36;;;;;;;4.60;4.13;;;16.80;99.90;;;;;;5135797;28;20159;-85
2022/09/16 10:17:15;;;;;;;21.27;15.53;;;17.10;99.90;;;;;;5136230;28;20171;-85
2022/09/16 10:20:04;;;;;;;16.90;12.77;;;17.10;99.90;;;;;;5121742;28;20179;-86
2022/09/16 10:22:32;;;;;;;15.03;10.80;;;16.90;99.90;;;;;;5121416;28;20199;-84
2022/09/16 10:25:08;;;;;;;17.60;13.10;;;17.00;99.90;;;;;;5125069;28;20182;-85
2022/09/16 10:27:36;;;;;;;16.87;12.20;;;17.20;99.90;;;;;;5123635;28;20286;-85
2022/09/16 10:30:03;;;;;;;5.80;5.13;;;16.90;99.90;;;;;;5124414;28;20177;-86
2022/09/16 10:32:29;;;;;;;5.30;4.37;;;16.70;99.90;;;;;;5123115;28;20255;-85
2022/09/16 10:34:56;;;;;;;17.93;14.50;;;;;;;;;;5125323;28;20219;-88
2022/09/16 10:37:22;;;;;;;4.87;4.10;;;17.30;99.90;;;;;;5128534;28;20190;-86
2022/09/16 10:39:55;;;;;;;8.20;5.97;;;17.30;99.90;;;;;;5126889;28;20184;-86
2022/09/16 10:42:24;;;;;;;7.20;6.50;;;17.70;99.90;;;;;;5127099;28;20290;-86
2022/09/16 10:44:52;;;;;;;6.53;5.07;;;17.60;99.90;;;;;;5123397;28;20180;-85
2022/09/16 10:47:23;;;;;;;16.23;11.90;;;17.10;99.90;;;;;;5122986;28;20207;-85
2022/09/16 10:49:50;;;;;;;9.67;6.57;;;16.90;99.90;;;;;;5122408;28;20176;-85
2022/09/16 10:52:30;;;;;;;6.27;5.60;;;16.60;99.90;;;;;;5118797;28;20675;-85
2022/09/16 10:54:56;;;;;;;8.07;6.50;;;16.50;99.90;;;;;;5120210;28;20213;-86
2022/09/16 10:57:33;;;;;;;7.70;6.23;;;16.50;99.90;;;;;;5119540;28;20215;-85
2022/09/16 11:00:15;;;;;;;10.87;6.00;;;16.40;99.90;;;;;;5119570;28;20292;-85
2022/09/16 11:03:18;;;;;;;7.90;5.63;;;16.10;99.90;;;;;;5118801;28;20298;-85
2022/09/16 11:06:02;;;;;;;6.77;4.53;;;15.90;99.90;;;;;;5119069;28;20189;-84
2022/09/16 11:08:59;;;;;;;5.10;4.40;;;15.50;99.90;;;;;;5119101;28;20225;-85
2022/09/16 11:11:39;;;;;;;4.17;3.70;;;15.60;99.90;;;;;;5110332;28;20206;-84
2022/09/16 11:14:16;;;;;;;5.63;4.33;;;15.30;99.90;;;;;;5118588;28;20166;-83
2022/09/16 11:16:48;;;;;;;6.60;5.47;;;14.80;99.90;;;;;;5118215;28;20189;-83
2022/09/16 11:19:31;;;;;;;6.70;4.20;;;14.80;99.90;;;;;;5117969;28;20170;-84
2022/09/16 11:21:59;;;;;;;4.60;3.77;;;14.70;99.90;;;;;;5120459;28;20658;-84
2022/09/16 11:24:54;;;;;;;5.90;3.70;;;14.60;99.90;;;;;;5119683;28;20712;-85
2022/09/16 11:27:36;;;;;;;4.63;3.30;;;14.60;99.90;;;;;;5119222;28;20204;-83
2022/09/16 11:30:14;;;;;;;1.60;1.50;;;14.50;99.90;;;;;;5117610;28;20208;-83
2022/09/16 11:32:59;;;;;;;1.60;1.50;;;13.40;99.90;;;;;;5119242;28;20199;-82
2022/09/16 11:36:02;;;;;;;2.10;1.70;;;13.30;99.90;;;;;;5121226;27;20258;-82
2022/09/16 11:38:38;;;;;;;2.33;2.00;;;12.70;99.90;;;;;;5119545;28;20240;-82
2022/09/16 11:41:15;;;;;;;3.33;2.30;;;11.90;99.90;;;;;;5119946;28;20261;-83
2022/09/16 11:44:05;;;;;;;2.03;1.80;;;11.70;99.90;;;;;;5118094;28;20204;-82
2022/09/16 11:46:44;;;;;;;3.40;1.93;;;11.60;99.90;;;;;;5118793;28;20188;-81
2022/09/16 11:49:13;;;;;;;3.40;2.20;;;11.40;99.90;;;;;;5119633;28;20155;-82
2022/09/16 11:51:57;;;;;;;3.73;2.40;;;11.30;99.90;;;;;;5118583;28;20625;-82
2022/09/16 11:54:57;;;;;;;2.97;2.43;;;11.30;99.90;;;;;;5118697;28;20179;-83
2022/09/16 11:57:31;;;;;;;2.63;2.40;;;11.30;99.90;;;;;;5118240;28;20175;-82
2022/09/16 12:00:02;;;;;;;2.87;2.50;;;11.20;99.90;;;;;;5119589;28;20164;-82
2022/09/16 12:02:30;;;;;;;4.20;3.27;;;11.30;99.90;;;;;;5119255;28;20196;-82
2022/09/16 12:05:22;;;;;;;4.20;2.70;;;11.40;99.90;;;;;;5118102;28;20171;-82
2022/09/16 12:08:06;;;;;;;3.03;2.53;;;11.40;99.90;;;;;;5117435;28;20206;-82
2022/09/16 12:10:36;;;;;;;3.67;3.00;;;11.70;99.90;;;;;;5118492;28;20160;-83
2022/09/16 12:13:27;;;;;;;3.37;2.70;;;11.80;99.90;;;;;;5117999;28;20259;-83
2022/09/16 12:16:01;;;;;;;5.17;2.97;;;11.80;99.90;;;;;;5120872;28;20690;-84
2022/09/16 12:18:36;;;;;;;5.90;4.30;;;11.80;99.90;;;;;;5117621;28;20168;-83
2022/09/16 12:21:13;;;;;;;3.50;3.10;;;11.80;99.90;;;;;;5117549;28;20213;-84
2022/09/16 12:23:46;;;;;;;3.20;2.73;;;11.60;99.90;;;;;;5118260;28;20191;-83
2022/09/16 12:26:35;;;;;;;4.33;2.60;;;11.50;99.90;;;;;;5117382;28;20274;-85
2022/09/16 12:29:10;;;;;;;3.33;2.50;;;11.40;99.90;;;;;;5118412;28;20180;-85
2022/09/16 12:31:39;;;;;;;3.07;2.63;;;11.30;99.90;;;;;;5118045;28;20612;-84
2022/09/16 12:34:17;;;;;;;4.50;2.30;;;11.30;99.90;;;;;;5117190;28;20234;-84
2022/09/16 12:36:48;;;;;;;2.50;2.27;;;11.50;99.90;;;;;;5117067;28;20168;-84
2022/09/16 12:39:14;;;;;;;3.43;2.40;;;11.50;99.90;;;;;;5117483;28;20236;-86
2022/09/16 12:41:47;;;;;;;8.50;2.17;;;11.60;99.90;;;;;;5118554;28;20213;-86
2022/09/16 12:44:29;;;;;;;3.50;2.57;;;11.50;99.90;;;;;;5118853;28;20168;-85
2022/09/16 12:47:13;;;;;;;3.07;2.10;;;11.60;99.90;;;;;;5118173;28;20232;-84
2022/09/16 12:49:48;;;;;;;3.83;2.10;;;11.70;99.90;;;;;;5118437;28;20591;-85
2022/09/16 12:52:19;;;;;;;3.53;2.43;;;11.70;99.90;;;;;;5117484;28;20187;-85
2022/09/16 12:55:03;;;;;;;3.60;2.80;;;11.90;99.90;;;;;;5117351;28;20157;-87
2022/09/16 12:58:04;;;;;;;4.53;3.30;;;11.90;99.90;;;;;;5116505;28;20582;-85
2022/09/16 13:00:33;;;;;;;5.53;2.80;;;11.90;99.90;;;;;;5094754;27;20198;-86
2022/09/16 13:03:13;;;;;;;3.40;3.07;;;11.90;99.90;;;;;;5116859;28;20206;-85
2022/09/16 13:05:47;;;;;;;4.53;3.60;;;11.90;99.90;;;;;;5118535;28;20179;-86
2022/09/16 13:08:29;;;;;;;3.80;3.10;;;11.90;99.90;;;;;;5117259;28;20191;-85
2022/09/16 13:11:02;;;;;;;4.50;2.70;;;11.70;99.90;;;;;;5115672;28;20160;-86
2022/09/16 13:13:38;;;;;;;5.57;2.00;;;11.70;99.90;;;;;;5118019;28;20184;-86
2022/09/16 13:16:06;;;;;;;3.10;2.43;;;11.60;99.90;;;;;;5117518;28;20243;-85
2022/09/16 13:18:44;;;;;;;6.87;3.77;;;11.60;99.90;;;;;;5117600;28;20250;-85
2022/09/16 13:21:19;;;;;;;4.23;3.27;;;11.60;99.90;;;;;;5117355;28;20236;-84
2022/09/16 13:23:48;;;;;;;4.17;3.17;;;11.50;99.90;;;;;;5116647;28;20201;-85
2022/09/16 13:26:13;;;;;;;5.10;3.33;;;11.50;99.90;;;;;;5118128;28;20192;-84
2022/09/16 13:28:45;;;;;;;4.70;3.47;;;11.50;99.90;;;;;;5116676;28;20179;-84
2022/09/16 13:31:15;;;;;;;5.63;3.43;;;11.50;99.90;;;;;;5118434;28;20167;-84
2022/09/16 13:33:56;;;;;;;3.80;3.40;;;11.50;99.90;;;;;;5118126;28;20209;-83
2022/09/16 13:36:22;;;;;;;7.07;4.87;;;11.60;99.90;;;;;;5118246;28;20213;-84
2022/09/16 13:38:57;;;;;;;6.10;3.60;;;11.70;99.90;;;;;;5117102;28;20186;-86
2022/09/16 13:41:31;;;;;;;3.30;3.00;;;11.70;99.90;;;;;;5118722;28;20167;-82
2022/09/16 13:43:56;;;;;;;4.60;3.67;;;11.90;99.90;;;;;;5117155;28;20203;-84
2022/09/16 13:46:35;;;;;;;3.63;3.33;;;11.90;99.90;;;;;;5118765;28;20195;-84
2022/09/16 13:49:05;;;;;;;5.23;4.07;;;12.00;99.90;;;;;;5117616;28;20170;-85
2022/09/16 13:51:33;;;;;;;6.63;5.10;;;;;;;;;;5119044;28;20190;-86
2022/09/16 13:54:02;;;;;;;7.13;4.40;;;12.00;99.90;;;;;;5121433;28;20178;-83
2022/09/16 13:56:46;;;;;;;4.33;3.50;;;12.00;99.90;;;;;;5121370;28;20544;-84
2022/09/16 13:59:14;;;;;;;6.30;3.50;;;12.00;99.90;;;;;;5122551;28;20183;-85
2022/09/16 14:01:58;;;;;;;3.40;3.10;;;11.90;99.90;;;;;;5123686;28;20183;-84
2022/09/16 14:04:36;;;;;;;3.83;3.17;;;11.80;99.90;;;;;;5123386;28;20235;-85
2022/09/16 14:07:27;;;;;;;3.73;3.33;;;11.70;99.90;;;;;;5120523;28;20632;-83
2022/09/16 14:10:08;;;;;;;4.43;3.83;;;11.70;99.90;;;;;;5111491;28;20278;-84
2022/09/16 14:13:00;;;;;;;6.87;4.07;;;11.70;99.90;;;;;;5120454;28;20274;-82
2022/09/16 14:15:28;;;;;;;4.47;3.63;;;11.70;99.90;;;;;;5120028;28;20592;-82
2022/09/16 14:18:01;;;;;;;3.93;3.50;;;11.50;99.90;;;;;;5119393;28;20651;-83
2022/09/16 14:20:27;;;;;;;3.37;3.07;;;11.50;99.90;;;;;;5119150;28;20223;-83
2022/09/16 14:23:01;;;;;;;3.83;3.40;;;11.60;99.90;;;;;;5120765;28;20219;-83
2022/09/16 14:25:37;;;;;;;3.93;3.17;;;11.50;99.90;;;;;;5119901;28;20191;-84
2022/09/16 14:28:07;;;;;;;3.90;3.50;;;11.50;99.90;;;;;;5119780;28;20206;-84
2022/09/16 14:30:33;;;;;;;7.20;3.87;;;11.50;99.90;;;;;;5121090;28;20172;-84
2022/09/16 14:33:01;;;;;;;4.10;3.70;;;11.40;99.90;;;;;;5120026;28;20206;-83
2022/09/16 14:35:27;;;;;;;4.33;3.70;;;11.50;99.90;;;;;;5120584;28;20172;-83
2022/09/16 14:37:58;;;;;;;4.80;3.40;;;11.60;99.90;;;;;;5120298;28;20176;-83
2022/09/16 14:40:26;;;;;;;5.40;3.53;;;11.60;99.90;;;;;;5119864;28;20642;-83
2022/09/16 14:42:59;;;;;;;4.43;3.13;;;11.70;99.90;;;;;;5118665;28;20199;-84
2022/09/16 14:45:26;;;;;;;3.90;3.50;;;11.60;99.90;;;;;;5118557;28;20574;-84
2022/09/16 14:47:53;;;;;;;5.53;4.00;;;11.60;99.90;;;;;;5120030;28;20671;-83
2022/09/16 14:50:23;;;;;;;6.20;4.03;;;11.70;99.90;;;;;;5118937;28;20187;-82
2022/09/16 14:52:54;;;;;;;4.77;3.97;;;11.70;99.90;;;;;;5118748;28;20204;-83
2022/09/16 14:55:22;;;;;;;5.13;4.10;;;11.70;99.90;;;;;;5118766;28;20182;-82
2022/09/16 14:57:48;;;;;;;5.13;4.47;;;11.70;99.90;;;;;;5120140;28;20210;-83
2022/09/16 15:00:17;;;;;;;7.83;3.97;;;11.70;99.90;;;;;;5118767;28;20183;-84
2022/09/16 15:02:51;;;;;;;5.53;4.40;;;11.70;99.90;;;;;;5120053;28;20202;-84
2022/09/16 15:05:17;;;;;;;5.33;4.37;;;11.70;99.90;;;;;;5119281;28;20568;-84
2022/09/16 15:07:43;;;;;;;5.27;4.07;;;11.60;99.90;;;;;;5118687;28;20221;-84
2022/09/16 15:10:22;;;;;;;5.80;4.87;;;11.50;99.90;;;;;;5118155;28;20519;-86
2022/09/16 15:12:52;;;;;;;5.77;5.17;;;11.50;99.90;;;;;;5119004;28;20194;-83
2022/09/16 15:15:30;;;;;;;5.63;4.57;;;11.50;99.90;;;;;;5119611;28;20529;-85
2022/09/16 15:18:42;;;;;;;4.40;3.97;;;11.50;99.90;;;;;;5118435;28;20581;-84
2022/09/16 15:21:31;;;;;;;5.37;4.10;;;11.50;99.90;;;;;;5060168;28;20270;-84
2022/09/16 15:24:00;;;;;;;5.10;4.60;;;11.50;99.90;;;;;;5117087;28;20229;-83
2022/09/16 15:26:37;;;;;;;6.43;4.47;;;11.60;99.90;;;;;;5118442;28;20207;-84
2022/09/16 15:29:24;;;;;;;7.63;4.97;;;11.50;99.90;;;;;;5119644;28;20160;-85
2022/09/16 15:31:50;;;;;;;6.20;4.97;;;11.60;99.90;;;;;;5117889;28;20185;-83
2022/09/16 15:34:17;;;;;;;6.17;4.80;;;11.60;99.90;;;;;;5119224;28;20228;-83
2022/09/16 15:36:46;;;;;;;6.60;4.47;;;11.60;99.90;;;;;;5117654;28;20175;-84
2022/09/16 15:39:33;;;;;;;10.60;5.10;;;11.60;99.90;;;;;;5118637;28;20209;-84
2022/09/16 15:42:10;;;;;;;5.53;5.00;;;11.60;99.90;;;;;;5119398;28;20286;-84
2022/09/16 15:44:49;;;;;;;6.50;4.97;;;11.60;99.90;;;;;;5117884;28;20198;-83
2022/09/16 15:47:36;;;;;;;5.57;5.07;;;11.50;99.90;;;;;;5117389;28;20568;-83
2022/09/16 15:50:10;;;;;;;7.43;5.00;;;11.40;99.90;;;;;;5117512;28;20160;-84
2022/09/16 15:53:03;;;;;;;6.77;5.03;;;11.50;99.90;;;;;;5117117;28;20188;-84
2022/09/16 15:55:36;;;;;;;10.20;5.40;;;11.50;99.90;;;;;;5116175;28;20166;-84
2022/09/16 15:58:25;;;;;;;5.43;4.93;;;11.40;99.90;;;;;;5117056;28;20160;-83
2022/09/16 16:01:19;;;;;;;6.00;5.03;;;11.40;99.90;;;;;;5117449;28;20160;-84
2022/09/16 16:04:00;;;;;;;8.10;5.90;;;11.50;99.90;;;;;;5118757;28;20205;-85
2022/09/16 16:07:00;;;;;;;6.53;4.77;;;11.50;99.90;;;;;;5117628;28;20211;-83
2022/09/16 16:09:26;;;;;;;5.97;5.20;;;11.50;99.90;;;;;;5088247;28;20233;-85
2022/09/16 16:11:52;;;;;;;7.43;5.57;;;11.40;99.90;;;;;;5120252;28;20510;-83
2022/09/16 16:14:18;;;;;;;6.73;5.00;;;11.40;99.90;;;;;;5119017;28;20262;-84
2022/09/16 16:16:43;;;;;;;6.73;5.37;;;11.30;99.90;;;;;;5116921;28;20210;-84
2022/09/16 16:19:09;;;;;;;7.00;5.27;;;11.30;99.90;;;;;;5117805;28;20179;-84
2022/09/16 16:21:45;;;;;;;6.90;6.20;;;11.20;99.90;;;;;;5119288;28;20182;-84
2022/09/16 16:24:14;;;;;;;7.00;5.93;;;11.20;99.90;;;;;;5119061;28;20163;-82
2022/09/16 16:26:40;;;;;;;7.10;5.87;;;11.20;99.90;;;;;;5118417;28;20195;-83
2022/09/16 16:29:06;;;;;;;7.63;6.77;;;11.20;99.90;;;;;;5119749;28;20246;-81
2022/09/16 16:31:32;;;;;;;7.07;6.37;;;11.20;99.90;;;;;;5119662;28;20206;-83
2022/09/16 16:33:58;;;;;;;8.23;6.30;;;11.20;99.90;;;;;;5118484;28;20664;-82
2022/09/16 16:36:24;;;;;;;8.27;6.03;;;11.30;99.90;;;;;;5121119;28;20221;-83
2022/09/16 16:38:49;;;;;;;7.17;6.47;;;11.30;99.90;;;;;;5120575;28;20171;-83
2022/09/16 16:41:23;;;;;;;7.70;6.87;;;11.30;99.90;;;;;;5119670;28;20179;-82
2022/09/16 16:43:49;;;;;;;7.50;6.50;;;11.30;99.90;;;;;;5118199;28;20291;-83
2022/09/16 16:46:16;;;;;;;7.87;6.93;;;11.30;99.90;;;;;;5119092;28;20176;-83
2022/09/16 16:48:42;;;;;;;7.03;6.30;;;11.40;99.90;;;;;;5118902;28;20229;-84
2022/09/16 16:51:11;;;;;;;8.93;7.30;;;11.40;99.90;;;;;;5117570;28;20186;-83
2022/09/16 16:53:37;;;;;;;10.60;8.97;;;11.40;99.90;;;;;;5116766;28;20778;-85
2022/09/16 16:56:05;;;;;;;9.30;7.90;;;11.40;99.90;;;;;;5117276;28;20182;-82
2022/09/16 16:58:34;;;;;;;8.87;7.13;;;11.40;99.90;;;;;;5116562;28;20181;-83
2022/09/16 17:01:12;;;;;;;9.63;7.67;;;11.30;99.90;;;;;;5116632;28;20736;-83
2022/09/16 17:03:39;;;;;;;7.03;6.33;;;11.30;99.90;;;;;;5118243;28;20205;-83
